sensor_id;sensor_type;location;lat;lon;timestamp;pressure;altitude;pressure_sealevel;temperature;humidity
3260;BME280;68938;48.150;14.004;2023-04-25T00:01:22;97450.63;;;11.87;62.50
3260;BME280;68938;48.150;14.004;2023-04-25T00:03:49;97455.00;;;11.84;62.57
3260;BME280;68938;48.150;14.004;2023-04-25T00:06:16;97454.09;;;11.85;62.56
3260;BME280;68938;48.150;14.004;2023-04-25T00:08:44;97457.47;;;11.86;62.47
3260;BME280;68938;48.150;14.004;2023-04-25T00:11:11;97450.56;;;11.88;62.88
3260;BME280;68938;48.150;14.004;2023-04-25T00:13:37;97454.88;;;11.88;62.43
3260;BME280;68938;48.150;14.004;2023-04-25T00:16:05;97448.13;;;11.85;62.02
3260;BME280;68938;48.150;14.004;2023-04-25T00:18:31;97458.13;;;11.91;61.89
3260;BME280;68938;48.150;14.004;2023-04-25T00:20:59;97458.13;;;11.91;61.90
3260;BME280;68938;48.150;14.004;2023-04-25T00:23:25;97458.19;;;11.90;61.87
3260;BME280;68938;48.150;14.004;2023-04-25T00:25:52;97460.91;;;11.87;61.95
3260;BME280;68938;48.150;14.004;2023-04-25T00:28:19;97456.75;;;11.84;61.81
3260;BME280;68938;48.150;14.004;2023-04-25T00:30:46;97453.50;;;11.79;61.63
3260;BME280;68938;48.150;14.004;2023-04-25T00:33:13;97456.84;;;11.81;61.87
3260;BME280;68938;48.150;14.004;2023-04-25T00:35:40;97456.28;;;11.74;61.69
3260;BME280;68938;48.150;14.004;2023-04-25T00:38:07;97454.81;;;11.69;61.61
3260;BME280;68938;48.150;14.004;2023-04-25T00:40:34;97458.56;;;11.61;61.80
3260;BME280;68938;48.150;14.004;2023-04-25T00:43:01;97442.47;;;11.58;61.74
3260;BME280;68938;48.150;14.004;2023-04-25T00:45:28;97450.25;;;11.56;62.46
3260;BME280;68938;48.150;14.004;2023-04-25T00:47:56;97446.09;;;11.54;62.49
3260;BME280;68938;48.150;14.004;2023-04-25T00:50:24;97429.50;;;11.42;62.54
3260;BME280;68938;48.150;14.004;2023-04-25T00:52:52;97430.59;;;11.36;62.69
3260;BME280;68938;48.150;14.004;2023-04-25T00:55:19;97444.97;;;11.41;63.11
3260;BME280;68938;48.150;14.004;2023-04-25T00:57:46;97434.00;;;11.37;63.39
3260;BME280;68938;48.150;14.004;2023-04-25T01:00:14;97440.91;;;11.35;63.57
3260;BME280;68938;48.150;14.004;2023-04-25T01:02:41;97441.53;;;11.21;64.51
3260;BME280;68938;48.150;14.004;2023-04-25T01:05:09;97439.38;;;11.12;64.85
3260;BME280;68938;48.150;14.004;2023-04-25T01:07:37;97432.31;;;11.17;64.31
3260;BME280;68938;48.150;14.004;2023-04-25T01:10:05;97437.13;;;11.25;64.32
3260;BME280;68938;48.150;14.004;2023-04-25T01:12:34;97429.34;;;11.26;64.46
3260;BME280;68938;48.150;14.004;2023-04-25T01:15:01;97424.00;;;11.31;64.22
3260;BME280;68938;48.150;14.004;2023-04-25T01:17:28;97428.94;;;11.35;64.22
3260;BME280;68938;48.150;14.004;2023-04-25T01:19:55;97431.38;;;11.38;64.09
3260;BME280;68938;48.150;14.004;2023-04-25T01:22:22;97432.06;;;11.42;64.16
3260;BME280;68938;48.150;14.004;2023-04-25T01:24:50;97423.50;;;11.42;64.19
3260;BME280;68938;48.150;14.004;2023-04-25T01:27:18;97432.69;;;11.47;63.70
3260;BME280;68938;48.150;14.004;2023-04-25T01:29:45;97430.19;;;11.46;63.73
3260;BME280;68938;48.150;14.004;2023-04-25T01:32:13;97430.13;;;11.47;63.75
3260;BME280;68938;48.150;14.004;2023-04-25T01:34:41;97423.25;;;11.48;63.51
3260;BME280;68938;48.150;14.004;2023-04-25T01:37:08;97429.22;;;11.48;63.60
3260;BME280;68938;48.150;14.004;2023-04-25T01:39:35;97429.84;;;11.53;63.65
3260;BME280;68938;48.150;14.004;2023-04-25T01:42:02;97434.06;;;11.54;63.87
3260;BME280;68938;48.150;14.004;2023-04-25T01:44:29;97428.09;;;11.54;64.27
3260;BME280;68938;48.150;14.004;2023-04-25T01:46:56;97420.25;;;11.57;64.34
3260;BME280;68938;48.150;14.004;2023-04-25T01:49:23;97423.53;;;11.60;64.15
3260;BME280;68938;48.150;14.004;2023-04-25T01:51:50;97413.16;;;11.62;63.98
3260;BME280;68938;48.150;14.004;2023-04-25T01:54:18;97412.34;;;11.61;64.51
3260;BME280;68938;48.150;14.004;2023-04-25T01:56:50;97407.19;;;11.61;64.82
3260;BME280;68938;48.150;14.004;2023-04-25T01:59:18;97403.66;;;11.64;64.67
3260;BME280;68938;48.150;14.004;2023-04-25T02:01:45;97401.78;;;11.68;64.53
3260;BME280;68938;48.150;14.004;2023-04-25T02:04:12;97394.91;;;11.68;64.25
3260;BME280;68938;48.150;14.004;2023-04-25T02:06:40;97408.53;;;11.70;64.05
3260;BME280;68938;48.150;14.004;2023-04-25T02:09:06;97406.09;;;11.67;63.86
3260;BME280;68938;48.150;14.004;2023-04-25T02:11:33;97411.38;;;11.64;63.84
3260;BME280;68938;48.150;14.004;2023-04-25T02:14:00;97414.09;;;11.61;63.97
3260;BME280;68938;48.150;14.004;2023-04-25T02:16:27;97411.59;;;11.59;63.58
3260;BME280;68938;48.150;14.004;2023-04-25T02:18:54;97404.84;;;11.57;63.92
3260;BME280;68938;48.150;14.004;2023-04-25T02:21:21;97411.66;;;11.58;63.52
3260;BME280;68938;48.150;14.004;2023-04-25T02:23:48;97401.72;;;11.50;64.00
3260;BME280;68938;48.150;14.004;2023-04-25T02:26:15;97403.25;;;11.54;63.99
3260;BME280;68938;48.150;14.004;2023-04-25T02:28:42;97405.00;;;11.54;63.85
3260;BME280;68938;48.150;14.004;2023-04-25T02:31:09;97398.19;;;11.53;63.20
3260;BME280;68938;48.150;14.004;2023-04-25T02:33:36;97389.66;;;11.52;64.13
3260;BME280;68938;48.150;14.004;2023-04-25T02:36:03;97387.94;;;11.53;64.14
3260;BME280;68938;48.150;14.004;2023-04-25T02:38:30;97391.38;;;11.52;64.34
3260;BME280;68938;48.150;14.004;2023-04-25T02:40:57;97389.66;;;11.52;63.88
3260;BME280;68938;48.150;14.004;2023-04-25T02:43:24;97385.34;;;11.53;64.19
3260;BME280;68938;48.150;14.004;2023-04-25T02:45:50;97385.41;;;11.51;63.95
3260;BME280;68938;48.150;14.004;2023-04-25T02:48:17;97380.34;;;11.50;63.99
3260;BME280;68938;48.150;14.004;2023-04-25T02:50:44;97377.03;;;11.48;63.89
3260;BME280;68938;48.150;14.004;2023-04-25T02:53:11;97381.47;;;11.44;63.59
3260;BME280;68938;48.150;14.004;2023-04-25T02:55:38;97384.25;;;11.39;63.86
3260;BME280;68938;48.150;14.004;2023-04-25T02:58:05;97384.44;;;11.35;63.91
3260;BME280;68938;48.150;14.004;2023-04-25T03:00:32;97386.47;;;11.28;64.38
3260;BME280;68938;48.150;14.004;2023-04-25T03:02:59;97380.66;;;11.25;64.74
3260;BME280;68938;48.150;14.004;2023-04-25T03:05:26;97370.69;;;11.17;64.70
3260;BME280;68938;48.150;14.004;2023-04-25T03:07:53;97368.97;;;11.18;64.63
3260;BME280;68938;48.150;14.004;2023-04-25T03:10:19;97369.75;;;11.20;65.14
3260;BME280;68938;48.150;14.004;2023-04-25T03:12:46;97371.53;;;11.18;64.99
3260;BME280;68938;48.150;14.004;2023-04-25T03:15:13;97374.03;;;11.19;65.06
3260;BME280;68938;48.150;14.004;2023-04-25T03:17:40;97374.94;;;11.18;65.21
3260;BME280;68938;48.150;14.004;2023-04-25T03:20:08;97371.47;;;11.19;65.57
3260;BME280;68938;48.150;14.004;2023-04-25T03:22:35;97371.47;;;11.19;65.24
3260;BME280;68938;48.150;14.004;2023-04-25T03:25:02;97366.41;;;11.18;65.12
3260;BME280;68938;48.150;14.004;2023-04-25T03:27:29;97364.81;;;11.15;65.17
3260;BME280;68938;48.150;14.004;2023-04-25T03:29:56;97363.13;;;11.14;65.42
3260;BME280;68938;48.150;14.004;2023-04-25T03:32:23;97362.25;;;11.15;65.21
3260;BME280;68938;48.150;14.004;2023-04-25T03:34:50;97357.00;;;11.18;65.23
3260;BME280;68938;48.150;14.004;2023-04-25T03:37:17;97360.38;;;11.19;65.26
3260;BME280;68938;48.150;14.004;2023-04-25T03:39:43;97356.22;;;11.16;65.41
3260;BME280;68938;48.150;14.004;2023-04-25T03:42:10;97363.34;;;11.09;65.52
3260;BME280;68938;48.150;14.004;2023-04-25T03:44:37;97367.72;;;11.07;65.93
3260;BME280;68938;48.150;14.004;2023-04-25T03:47:04;97355.78;;;11.06;66.01
3260;BME280;68938;48.150;14.004;2023-04-25T03:49:32;97348.91;;;11.07;65.84
3260;BME280;68938;48.150;14.004;2023-04-25T03:52:00;97361.56;;;11.11;65.63
3260;BME280;68938;48.150;14.004;2023-04-25T03:54:28;97354.81;;;11.09;65.42
3260;BME280;68938;48.150;14.004;2023-04-25T03:56:54;97358.22;;;11.09;65.39
3260;BME280;68938;48.150;14.004;2023-04-25T03:59:21;97372.91;;;11.06;65.09
3260;BME280;68938;48.150;14.004;2023-04-25T04:01:48;97366.41;;;10.99;65.48
3260;BME280;68938;48.150;14.004;2023-04-25T04:04:15;97366.44;;;10.97;65.49
3260;BME280;68938;48.150;14.004;2023-04-25T04:06:42;97360.69;;;10.92;65.51
3260;BME280;68938;48.150;14.004;2023-04-25T04:09:09;97360.13;;;10.85;65.68
3260;BME280;68938;48.150;14.004;2023-04-25T04:11:37;97361.03;;;10.84;65.80
3260;BME280;68938;48.150;14.004;2023-04-25T04:14:06;97362.56;;;10.88;66.05
3260;BME280;68938;48.150;14.004;2023-04-25T04:16:33;97362.47;;;10.90;66.08
3260;BME280;68938;48.150;14.004;2023-04-25T04:19:00;97360.75;;;10.90;66.50
3260;BME280;68938;48.150;14.004;2023-04-25T04:21:27;97357.31;;;10.91;66.92
3260;BME280;68938;48.150;14.004;2023-04-25T04:23:54;97353.13;;;10.89;67.24
3260;BME280;68938;48.150;14.004;2023-04-25T04:26:21;97375.19;;;10.93;67.66
3260;BME280;68938;48.150;14.004;2023-04-25T04:28:48;97370.97;;;10.92;67.91
3260;BME280;68938;48.150;14.004;2023-04-25T04:31:18;97368.19;;;10.97;67.87
3260;BME280;68938;48.150;14.004;2023-04-25T04:33:45;97367.13;;;11.01;68.04
3260;BME280;68938;48.150;14.004;2023-04-25T04:36:12;97366.25;;;11.02;68.40
3260;BME280;68938;48.150;14.004;2023-04-25T04:38:39;97361.88;;;11.04;68.59
3260;BME280;68938;48.150;14.004;2023-04-25T04:41:07;97364.38;;;11.05;68.46
3260;BME280;68938;48.150;14.004;2023-04-25T04:43:35;97368.34;;;11.12;68.64
3260;BME280;68938;48.150;14.004;2023-04-25T04:46:02;97363.25;;;11.11;68.80
3260;BME280;68938;48.150;14.004;2023-04-25T04:48:31;97361.34;;;11.16;68.42
3260;BME280;68938;48.150;14.004;2023-04-25T04:50:58;97355.44;;;11.14;68.40
3260;BME280;68938;48.150;14.004;2023-04-25T04:53:26;97349.34;;;11.17;68.44
3260;BME280;68938;48.150;14.004;2023-04-25T04:55:53;97345.81;;;11.19;68.44
3260;BME280;68938;48.150;14.004;2023-04-25T04:58:21;97361.91;;;11.23;68.60
3260;BME280;68938;48.150;14.004;2023-04-25T05:00:48;97360.63;;;11.31;68.85
3260;BME280;68938;48.150;14.004;2023-04-25T05:03:15;97357.09;;;11.34;68.08
3260;BME280;68938;48.150;14.004;2023-04-25T05:05:43;97358.72;;;11.36;68.07
3260;BME280;68938;48.150;14.004;2023-04-25T05:08:10;97355.03;;;11.42;68.05
3260;BME280;68938;48.150;14.004;2023-04-25T05:10:37;97356.97;;;11.37;68.08
3260;BME280;68938;48.150;14.004;2023-04-25T05:13:03;97359.75;;;11.32;67.92
3260;BME280;68938;48.150;14.004;2023-04-25T05:15:30;97366.34;;;11.38;67.80
3260;BME280;68938;48.150;14.004;2023-04-25T05:17:57;97370.91;;;11.50;68.13
3260;BME280;68938;48.150;14.004;2023-04-25T05:20:24;97365.31;;;11.42;68.08
3260;BME280;68938;48.150;14.004;2023-04-25T05:22:51;97368.69;;;11.24;68.22
3260;BME280;68938;48.150;14.004;2023-04-25T05:25:18;97362.06;;;11.38;68.65
3260;BME280;68938;48.150;14.004;2023-04-25T05:27:45;97371.00;;;11.49;68.35
3260;BME280;68938;48.150;14.004;2023-04-25T05:30:12;97341.06;;;11.48;68.14
3260;BME280;68938;48.150;14.004;2023-04-25T05:32:39;97346.75;;;11.54;67.91
3260;BME280;68938;48.150;14.004;2023-04-25T05:35:06;97349.88;;;11.61;68.04
3260;BME280;68938;48.150;14.004;2023-04-25T05:37:33;97348.06;;;11.63;67.82
3260;BME280;68938;48.150;14.004;2023-04-25T05:40:00;97349.38;;;11.72;67.09
3260;BME280;68938;48.150;14.004;2023-04-25T05:42:27;97345.53;;;11.80;67.02
3260;BME280;68938;48.150;14.004;2023-04-25T05:44:54;97337.56;;;11.87;66.84
3260;BME280;68938;48.150;14.004;2023-04-25T05:47:20;97341.19;;;12.00;66.41
3260;BME280;68938;48.150;14.004;2023-04-25T05:49:47;97341.03;;;12.03;66.48
3260;BME280;68938;48.150;14.004;2023-04-25T05:52:14;97347.34;;;12.15;66.87
3260;BME280;68938;48.150;14.004;2023-04-25T05:54:41;97346.44;;;12.33;66.88
3260;BME280;68938;48.150;14.004;2023-04-25T05:57:08;97341.13;;;12.36;65.56
3260;BME280;68938;48.150;14.004;2023-04-25T05:59:35;97348.84;;;12.36;66.51
3260;BME280;68938;48.150;14.004;2023-04-25T06:02:02;97341.81;;;12.22;65.49
3260;BME280;68938;48.150;14.004;2023-04-25T06:04:29;97346.19;;;12.55;64.99
3260;BME280;68938;48.150;14.004;2023-04-25T06:06:56;97341.19;;;12.69;64.59
3260;BME280;68938;48.150;14.004;2023-04-25T06:09:22;97347.25;;;12.84;64.32
3260;BME280;68938;48.150;14.004;2023-04-25T06:11:49;97343.47;;;12.91;63.50
3260;BME280;68938;48.150;14.004;2023-04-25T06:14:16;97340.16;;;13.05;63.35
3260;BME280;68938;48.150;14.004;2023-04-25T06:16:44;97337.78;;;13.18;62.26
3260;BME280;68938;48.150;14.004;2023-04-25T06:19:10;97334.94;;;13.22;61.96
3260;BME280;68938;48.150;14.004;2023-04-25T06:21:37;97339.91;;;13.27;61.78
3260;BME280;68938;48.150;14.004;2023-04-25T06:24:04;97339.97;;;13.57;62.04
3260;BME280;68938;48.150;14.004;2023-04-25T06:26:31;97321.25;;;13.69;62.02
3260;BME280;68938;48.150;14.004;2023-04-25T06:28:58;97326.72;;;13.95;60.50
3260;BME280;68938;48.150;14.004;2023-04-25T06:31:25;97322.28;;;13.97;60.14
3260;BME280;68938;48.150;14.004;2023-04-25T06:33:52;97321.91;;;13.89;58.98
3260;BME280;68938;48.150;14.004;2023-04-25T06:36:19;97321.28;;;13.99;60.13
3260;BME280;68938;48.150;14.004;2023-04-25T06:38:46;97320.47;;;13.99;59.26
3260;BME280;68938;48.150;14.004;2023-04-25T06:41:13;97324.19;;;14.09;58.97
3260;BME280;68938;48.150;14.004;2023-04-25T06:43:40;97316.31;;;14.27;58.52
3260;BME280;68938;48.150;14.004;2023-04-25T06:46:07;97319.91;;;14.38;57.89
3260;BME280;68938;48.150;14.004;2023-04-25T06:48:34;97322.75;;;14.34;57.65
3260;BME280;68938;48.150;14.004;2023-04-25T06:51:01;97313.75;;;14.11;55.07
3260;BME280;68938;48.150;14.004;2023-04-25T06:53:28;97312.28;;;13.77;54.74
3260;BME280;68938;48.150;14.004;2023-04-25T06:55:54;97316.25;;;13.82;55.89
3260;BME280;68938;48.150;14.004;2023-04-25T06:58:21;97318.19;;;13.79;55.38
3260;BME280;68938;48.150;14.004;2023-04-25T07:00:48;97321.84;;;14.05;55.47
3260;BME280;68938;48.150;14.004;2023-04-25T07:03:15;97319.34;;;14.19;56.51
3260;BME280;68938;48.150;14.004;2023-04-25T07:05:43;97316.28;;;14.12;57.71
3260;BME280;68938;48.150;14.004;2023-04-25T07:08:10;97313.06;;;14.23;58.20
3260;BME280;68938;48.150;14.004;2023-04-25T07:10:37;97309.25;;;14.14;57.36
3260;BME280;68938;48.150;14.004;2023-04-25T07:13:04;97308.44;;;14.14;58.20
3260;BME280;68938;48.150;14.004;2023-04-25T07:15:31;97314.59;;;14.11;58.97
3260;BME280;68938;48.150;14.004;2023-04-25T07:17:58;97308.59;;;14.11;59.22
3260;BME280;68938;48.150;14.004;2023-04-25T07:20:25;97309.41;;;13.97;58.82
3260;BME280;68938;48.150;14.004;2023-04-25T07:22:52;97305.47;;;14.06;59.17
3260;BME280;68938;48.150;14.004;2023-04-25T07:25:19;97304.56;;;14.21;59.61
3260;BME280;68938;48.150;14.004;2023-04-25T07:27:46;97305.19;;;14.10;58.87
3260;BME280;68938;48.150;14.004;2023-04-25T07:30:14;97311.81;;;14.00;58.75
3260;BME280;68938;48.150;14.004;2023-04-25T07:32:41;97302.91;;;14.06;59.29
3260;BME280;68938;48.150;14.004;2023-04-25T07:35:08;97303.44;;;14.11;59.10
3260;BME280;68938;48.150;14.004;2023-04-25T07:37:35;97296.06;;;14.05;57.35
3260;BME280;68938;48.150;14.004;2023-04-25T07:40:03;97303.63;;;14.08;56.15
3260;BME280;68938;48.150;14.004;2023-04-25T07:42:30;97303.81;;;13.74;55.43
3260;BME280;68938;48.150;14.004;2023-04-25T07:44:57;97297.69;;;13.61;54.64
3260;BME280;68938;48.150;14.004;2023-04-25T07:47:25;97303.06;;;13.72;54.53
3260;BME280;68938;48.150;14.004;2023-04-25T07:49:52;97297.72;;;13.75;55.78
3260;BME280;68938;48.150;14.004;2023-04-25T07:52:19;97301.75;;;13.49;54.51
3260;BME280;68938;48.150;14.004;2023-04-25T07:54:46;97292.25;;;13.66;54.29
3260;BME280;68938;48.150;14.004;2023-04-25T07:57:13;97292.84;;;13.55;54.29
3260;BME280;68938;48.150;14.004;2023-04-25T07:59:40;97298.22;;;13.82;53.70
3260;BME280;68938;48.150;14.004;2023-04-25T08:02:07;97295.22;;;14.04;53.21
3260;BME280;68938;48.150;14.004;2023-04-25T08:04:35;97298.50;;;14.22;52.07
3260;BME280;68938;48.150;14.004;2023-04-25T08:07:02;97297.13;;;14.31;51.98
3260;BME280;68938;48.150;14.004;2023-04-25T08:09:29;97294.09;;;14.38;51.43
3260;BME280;68938;48.150;14.004;2023-04-25T08:11:56;97293.13;;;14.55;51.40
3260;BME280;68938;48.150;14.004;2023-04-25T08:14:22;97289.34;;;14.46;50.93
3260;BME280;68938;48.150;14.004;2023-04-25T08:16:49;97283.75;;;14.54;50.51
3260;BME280;68938;48.150;14.004;2023-04-25T08:19:16;97283.66;;;14.84;49.15
3260;BME280;68938;48.150;14.004;2023-04-25T08:21:43;97281.06;;;14.99;48.44
3260;BME280;68938;48.150;14.004;2023-04-25T08:24:10;97279.19;;;15.01;48.65
3260;BME280;68938;48.150;14.004;2023-04-25T08:26:37;97285.06;;;15.17;48.74
3260;BME280;68938;48.150;14.004;2023-04-25T08:29:04;97276.88;;;15.25;49.22
3260;BME280;68938;48.150;14.004;2023-04-25T08:31:31;97285.38;;;15.12;49.38
3260;BME280;68938;48.150;14.004;2023-04-25T08:33:58;97284.69;;;14.67;51.80
3260;BME280;68938;48.150;14.004;2023-04-25T08:36:24;97278.44;;;15.13;50.78
3260;BME280;68938;48.150;14.004;2023-04-25T08:39:05;97285.44;;;15.11;48.53
3260;BME280;68938;48.150;14.004;2023-04-25T08:41:32;97287.72;;;14.74;47.73
3260;BME280;68938;48.150;14.004;2023-04-25T08:44:00;97287.44;;;14.79;48.67
3260;BME280;68938;48.150;14.004;2023-04-25T08:46:30;97293.53;;;14.78;47.82
3260;BME280;68938;48.150;14.004;2023-04-25T08:49:01;97279.22;;;14.86;47.95
3260;BME280;68938;48.150;14.004;2023-04-25T08:51:31;97280.78;;;14.89;47.94
3260;BME280;68938;48.150;14.004;2023-04-25T08:54:10;97287.53;;;15.33;47.85
3260;BME280;68938;48.150;14.004;2023-04-25T08:56:44;97278.91;;;15.47;47.43
3260;BME280;68938;48.150;14.004;2023-04-25T08:59:12;97291.50;;;15.38;47.25
3260;BME280;68938;48.150;14.004;2023-04-25T09:01:39;97286.47;;;15.50;47.33
3260;BME280;68938;48.150;14.004;2023-04-25T09:04:07;97280.50;;;15.35;47.44
3260;BME280;68938;48.150;14.004;2023-04-25T09:06:34;97284.09;;;15.74;47.81
3260;BME280;68938;48.150;14.004;2023-04-25T09:09:06;97272.44;;;15.81;46.80
3260;BME280;68938;48.150;14.004;2023-04-25T09:11:36;97269.25;;;15.90;46.70
3260;BME280;68938;48.150;14.004;2023-04-25T09:22:06;97287.16;;;15.39;46.47
3260;BME280;68938;48.150;14.004;2023-04-25T09:24:40;97284.50;;;15.68;46.49
3260;BME280;68938;48.150;14.004;2023-04-25T09:27:10;97281.94;;;15.53;47.61
3260;BME280;68938;48.150;14.004;2023-04-25T09:29:39;97280.63;;;15.33;47.01
3260;BME280;68938;48.150;14.004;2023-04-25T09:34:47;97276.63;;;16.09;47.55
3260;BME280;68938;48.150;14.004;2023-04-25T09:37:26;97281.06;;;15.94;46.24
3260;BME280;68938;48.150;14.004;2023-04-25T09:39:57;97289.16;;;16.41;45.47
3260;BME280;68938;48.150;14.004;2023-04-25T09:42:26;97290.53;;;16.46;44.11
3260;BME280;68938;48.150;14.004;2023-04-25T09:44:55;97297.66;;;16.17;44.25
3260;BME280;68938;48.150;14.004;2023-04-25T09:47:25;97302.84;;;16.17;45.16
3260;BME280;68938;48.150;14.004;2023-04-25T09:49:53;97303.16;;;16.25;44.28
3260;BME280;68938;48.150;14.004;2023-04-25T09:52:23;97315.13;;;16.01;46.12
3260;BME280;68938;48.150;14.004;2023-04-25T09:54:52;97313.44;;;15.87;46.91
3260;BME280;68938;48.150;14.004;2023-04-25T09:57:21;97320.88;;;15.23;47.21
3260;BME280;68938;48.150;14.004;2023-04-25T09:59:53;97321.81;;;14.79;48.97
3260;BME280;68938;48.150;14.004;2023-04-25T10:02:24;97327.91;;;14.64;49.51
3260;BME280;68938;48.150;14.004;2023-04-25T10:04:53;97332.59;;;14.72;50.06
3260;BME280;68938;48.150;14.004;2023-04-25T10:07:23;97340.00;;;14.48;51.75
3260;BME280;68938;48.150;14.004;2023-04-25T10:09:58;97332.50;;;14.29;51.65
3260;BME280;68938;48.150;14.004;2023-04-25T10:12:27;97339.56;;;14.11;52.92
3260;BME280;68938;48.150;14.004;2023-04-25T10:14:54;97338.97;;;13.28;53.58
3260;BME280;68938;48.150;14.004;2023-04-25T10:17:22;97331.66;;;13.52;55.12
3260;BME280;68938;48.150;14.004;2023-04-25T10:19:50;97335.63;;;13.89;53.66
3260;BME280;68938;48.150;14.004;2023-04-25T10:22:26;97333.78;;;13.91;53.12
3260;BME280;68938;48.150;14.004;2023-04-25T10:24:58;97326.28;;;14.03;52.88
3260;BME280;68938;48.150;14.004;2023-04-25T10:27:27;97320.88;;;14.21;52.69
3260;BME280;68938;48.150;14.004;2023-04-25T10:30:08;97329.03;;;14.44;51.84
3260;BME280;68938;48.150;14.004;2023-04-25T10:32:36;97321.13;;;14.47;50.74
3260;BME280;68938;48.150;14.004;2023-04-25T10:35:30;97320.56;;;14.42;51.23
3260;BME280;68938;48.150;14.004;2023-04-25T10:38:04;97318.53;;;14.47;52.81
3260;BME280;68938;48.150;14.004;2023-04-25T10:40:36;97317.81;;;14.15;54.12
3260;BME280;68938;48.150;14.004;2023-04-25T10:43:42;97311.50;;;14.35;55.96
3260;BME280;68938;48.150;14.004;2023-04-25T10:46:21;97321.19;;;14.01;55.69
3260;BME280;68938;48.150;14.004;2023-04-25T10:48:59;97319.44;;;14.32;56.63
3260;BME280;68938;48.150;14.004;2023-04-25T10:51:28;97330.13;;;14.26;55.15
3260;BME280;68938;48.150;14.004;2023-04-25T10:54:18;97366.88;;;13.83;58.94
3260;BME280;68938;48.150;14.004;2023-04-25T10:56:45;97372.25;;;13.64;61.42
3260;BME280;68938;48.150;14.004;2023-04-25T10:59:14;97392.66;;;13.02;61.15
3260;BME280;68938;48.150;14.004;2023-04-25T11:01:47;97388.69;;;12.79;60.66
3260;BME280;68938;48.150;14.004;2023-04-25T11:04:33;97377.91;;;12.89;63.32
3260;BME280;68938;48.150;14.004;2023-04-25T11:07:23;97378.28;;;12.65;62.99
3260;BME280;68938;48.150;14.004;2023-04-25T11:09:55;97382.13;;;12.39;64.48
3260;BME280;68938;48.150;14.004;2023-04-25T11:12:24;97378.41;;;12.62;64.66
3260;BME280;68938;48.150;14.004;2023-04-25T11:15:01;97375.53;;;13.01;65.12
3260;BME280;68938;48.150;14.004;2023-04-25T11:17:30;97367.31;;;13.28;67.11
3260;BME280;68938;48.150;14.004;2023-04-25T11:19:57;97365.72;;;13.57;66.44
3260;BME280;68938;48.150;14.004;2023-04-25T11:22:26;97359.84;;;13.71;65.28
3260;BME280;68938;48.150;14.004;2023-04-25T11:24:54;97358.50;;;13.64;64.88
3260;BME280;68938;48.150;14.004;2023-04-25T11:27:21;97350.47;;;13.54;66.00
3260;BME280;68938;48.150;14.004;2023-04-25T11:29:48;97357.00;;;13.60;66.34
3260;BME280;68938;48.150;14.004;2023-04-25T11:32:17;97350.63;;;13.51;62.05
3260;BME280;68938;48.150;14.004;2023-04-25T11:34:47;97349.56;;;14.01;64.35
3260;BME280;68938;48.150;14.004;2023-04-25T11:37:14;97343.56;;;14.01;62.66
3260;BME280;68938;48.150;14.004;2023-04-25T11:39:45;97334.50;;;14.09;63.85
3260;BME280;68938;48.150;14.004;2023-04-25T11:42:12;97326.63;;;14.27;63.12
3260;BME280;68938;48.150;14.004;2023-04-25T11:44:40;97332.28;;;14.48;63.67
3260;BME280;68938;48.150;14.004;2023-04-25T11:47:07;97340.25;;;14.59;64.20
3260;BME280;68938;48.150;14.004;2023-04-25T11:49:35;97342.56;;;14.78;66.05
3260;BME280;68938;48.150;14.004;2023-04-25T11:52:02;97327.44;;;15.00;61.76
3260;BME280;68938;48.150;14.004;2023-04-25T11:54:29;97330.19;;;14.97;62.42
3260;BME280;68938;48.150;14.004;2023-04-25T11:56:56;97318.84;;;15.00;61.25
3260;BME280;68938;48.150;14.004;2023-04-25T11:59:24;97322.06;;;15.17;61.53
3260;BME280;68938;48.150;14.004;2023-04-25T12:01:51;97324.88;;;15.56;60.22
3260;BME280;68938;48.150;14.004;2023-04-25T12:04:21;97318.72;;;15.98;59.82
3260;BME280;68938;48.150;14.004;2023-04-25T12:06:54;97295.59;;;16.35;57.15
3260;BME280;68938;48.150;14.004;2023-04-25T12:09:32;97307.63;;;16.49;55.75
3260;BME280;68938;48.150;14.004;2023-04-25T12:12:01;97303.88;;;16.53;54.15
3260;BME280;68938;48.150;14.004;2023-04-25T12:14:32;97296.25;;;15.99;52.90
3260;BME280;68938;48.150;14.004;2023-04-25T12:17:02;97295.34;;;16.13;53.84
3260;BME280;68938;48.150;14.004;2023-04-25T12:19:35;97302.50;;;16.09;54.62
3260;BME280;68938;48.150;14.004;2023-04-25T12:22:03;97296.91;;;16.15;53.86
3260;BME280;68938;48.150;14.004;2023-04-25T12:24:36;97300.88;;;16.46;52.25
3260;BME280;68938;48.150;14.004;2023-04-25T12:27:06;97293.44;;;16.42;52.90
3260;BME280;68938;48.150;14.004;2023-04-25T12:29:34;97299.63;;;16.26;52.65
3260;BME280;68938;48.150;14.004;2023-04-25T12:32:16;97290.84;;;16.67;54.46
3260;BME280;68938;48.150;14.004;2023-04-25T12:34:43;97315.16;;;16.39;53.04
3260;BME280;68938;48.150;14.004;2023-04-25T12:37:10;97296.94;;;16.92;48.27
3260;BME280;68938;48.150;14.004;2023-04-25T12:39:37;97297.97;;;17.02;46.37
3260;BME280;68938;48.150;14.004;2023-04-25T12:42:04;97305.78;;;16.76;44.67
3260;BME280;68938;48.150;14.004;2023-04-25T12:44:35;97303.47;;;16.59;44.97
3260;BME280;68938;48.150;14.004;2023-04-25T12:47:01;97307.06;;;16.18;45.03
3260;BME280;68938;48.150;14.004;2023-04-25T12:49:30;97308.81;;;16.05;47.04
3260;BME280;68938;48.150;14.004;2023-04-25T12:51:57;97327.69;;;15.93;46.40
3260;BME280;68938;48.150;14.004;2023-04-25T12:54:25;97336.69;;;15.87;47.44
3260;BME280;68938;48.150;14.004;2023-04-25T12:56:52;97348.19;;;15.54;48.01
3260;BME280;68938;48.150;14.004;2023-04-25T12:59:19;97358.41;;;14.72;51.60
3260;BME280;68938;48.150;14.004;2023-04-25T13:01:46;97361.41;;;14.50;53.19
3260;BME280;68938;48.150;14.004;2023-04-25T13:04:13;97371.03;;;13.86;55.26
3260;BME280;68938;48.150;14.004;2023-04-25T13:06:40;97365.78;;;13.87;55.23
3260;BME280;68938;48.150;14.004;2023-04-25T13:09:06;97380.38;;;13.72;55.60
3260;BME280;68938;48.150;14.004;2023-04-25T13:11:33;97369.31;;;13.39;57.30
3260;BME280;68938;48.150;14.004;2023-04-25T13:14:01;97388.59;;;13.47;59.00
3260;BME280;68938;48.150;14.004;2023-04-25T13:16:27;97397.47;;;13.09;58.90